Ulsteinvik  Ulsteinvik


Beaufortskalaen  Beaufortskalaen


Clouds and precipitation  Clouds and precipitation


varsel for Snø/Is more information rain snow radar


Snø/Is Fra: 25-09-2020 23:00 Til: 26-09-2020 11:00 Advarsel for: Snø/Is Nivå: Gult info button

Nære METAR rapporter

   
ENAL - Ålesund
oppdatert: 25-09-2020 12:20
Delvis Skyet  
Delvis Skyet  
   Vind: NØ 5.7 m/s
Vind: NØ 5.7 m/s
Temperatur: 11°C
Duggpunkt: 4°C
Fuktighet: 62%
Barometer: 1008 hPa
Skyer: Delvis Skyet
Sikt: More than 10 km
Skydetaljer: Delvis Skyet 944.9 m
ENAL 251020Z 05011KT 9999 SCT031 11/04 Q1008
ENOV - Ørsta
oppdatert: 25-09-2020 11:50
Delvis Skyet  
Delvis Skyet  
   Vind: VSV 2.1 m/s
Vind: VSV 2.1 m/s
Temperatur: 9°C
Wind Chill: 8°C
Duggpunkt: 6°C
Fuktighet: 82%
Barometer: 1007 hPa
Skyer: Delvis Skyet
Sikt: More than 10 km
Skydetaljer: få skyer 457.2 m,
Delvis Skyet 1066.8 m
ENOV 250950Z 24004KT 9999 FEW015 SCT035 09/06 Q1007 RMK WIND 2175FT 06009KT
ENML - Tafjorden
oppdatert: 25-09-2020 12:20
For det meste skyet  
For det meste skyet  
   Vind: varierer 0.5 m/s
Vind: varierer 0.5 m/s
Temperatur: 9°C
Duggpunkt: 6°C
Fuktighet: 82%
Barometer: 1008 hPa
Skyer: For det meste skyet
Sikt: More than 10 km
Skydetaljer: få skyer 304.8 m,
Delvis Skyet 762 m,
For det meste skyet 1219.2 m
ENML 251020Z VRB01KT 9999 FEW010 SCT025 BKN040 09/06 Q1008
ENML - Molde
oppdatert: 25-09-2020 12:20
For det meste skyet  
For det meste skyet  
   Vind: varierer 0.5 m/s
Vind: varierer 0.5 m/s
Temperatur: 9°C
Duggpunkt: 6°C
Fuktighet: 82%
Barometer: 1008 hPa
Skyer: For det meste skyet
Sikt: More than 10 km
Skydetaljer: få skyer 304.8 m,
Delvis Skyet 762 m,
For det meste skyet 1219.2 m
ENML 251020Z VRB01KT 9999 FEW010 SCT025 BKN040 09/06 Q1008
ENFL - Florø
oppdatert: 25-09-2020 12:20
Delvis Skyet  
Delvis Skyet  
   Vind: NNØ 3.6 m/s
Vind: NNØ 3.6 m/s
Temperatur: 11°C
Duggpunkt: 4°C
Fuktighet: 62%
Barometer: 1007 hPa
Skyer: Delvis Skyet
Sikt: More than 10 km
Skydetaljer: få skyer 457.2 m,
Delvis Skyet 1371.6 m
ENFL 251020Z 03007KT 350V090 9999 FEW015 SCT045 11/04 Q1007
ENVA - Trondheim
oppdatert: 25-09-2020 12:20
For det meste skyet  
For det meste skyet  
   Vind: VEST 8.7 m/s
Vind: VEST 8.7 m/s
Temperatur: 9°C
Wind Chill: 5°C
Duggpunkt: 6°C
Fuktighet: 82%
Barometer: 1008 hPa
Skyer: For det meste skyet
Sikt: More than 10 km
Skydetaljer: få skyer 579.1 m,
For det meste skyet 792.5 m
ENVA 251020Z 27017KT 9999 FEW019 BKN026 09/06 Q1008 NOSIG RMK WIND 670FT 28016KT
ENBR - Bergen
oppdatert: 25-09-2020 12:20
Delvis Skyet  
Delvis Skyet  
   Vind: Nord 5.1 m/s
Vind: Nord 5.1 m/s
Temperatur: 11°C
Duggpunkt: 6°C
Fuktighet: 72%
Barometer: 1003 hPa
Skyer: Delvis Skyet
Sikt: More than 10 km
Skydetaljer: få skyer 609.6 m,
Delvis Skyet 5486.4 m
ENBR 251020Z 36010KT 9999 FEW020 SCT180 11/06 Q1003 NOSIG RMK WIND 1200FT 36016KT
ENZV - Stavanger
oppdatert: 25-09-2020 12:20
For det meste skyet  
For det meste skyet  
   Vind: NNØ 3.1 m/s
Vind: NNØ 3.1 m/s
Temperatur: 11°C
Duggpunkt: 9°C
Fuktighet: 88%
Barometer: 1002 hPa
Skyer: For det meste skyet
Sikt: More than 10 km
Skydetaljer: få skyer 304.8 m,
For det meste skyet 3657.6 m
ENZV 251020Z 02006KT 9999 FEW010 BKN120 11/09 Q1002 NOSIG
ENGM - Oslo
oppdatert: 25-09-2020 12:20
Klart  
Klart  
   Vind: NNØ 4.1 m/s
Vind: NNØ 4.1 m/s
Temperatur: 11°C
Duggpunkt: 5°C
Fuktighet: 67%
Barometer: 1005 hPa
Sikt: More than 10 km
Skydetaljer: Klart
ENGM 251020Z 02008KT CAVOK 11/05 Q1005 NOSIG
ESSA - Stockholm
oppdatert: 25-09-2020 12:20
Klart  
Klart  
   Vind: varierer 1 m/s
Vind: varierer 1 m/s
Temperatur: 16°C
Duggpunkt: 7°C
Fuktighet: 55%
Barometer: 1006 hPa
Sikt: More than 10 km
Skydetaljer: Klart
ESSA 251020Z VRB02KT CAVOK 16/07 Q1006 NOSIG
EKCH - København
oppdatert: 25-09-2020 12:20
Overskyet  
Overskyet  
   Vind: NØ 6.2 m/s
Vind: NØ 6.2 m/s
Temperatur: 15°C
Duggpunkt: 14°C
Fuktighet: 94%
Barometer: 995 hPa
Skyer: Overskyet
Sikt: More than 10 km
Skydetaljer: Overskyet 944.9 m
EKCH 251020Z AUTO 04012KT 9999 OVC031/// 15/14 Q0995 TEMPO 2500 TSRA BKN020CB
ENHV - Nordkapp
oppdatert: 25-09-2020 12:20
Regn i nærheten, For det meste skyet  
Regn i nærheten, For det meste skyet  
   Vind: SSØ 4.6 m/s
Vind: SSØ 4.6 m/s
Temperatur: 9°C
Wind Chill: 7°C
Duggpunkt: 6°C
Fuktighet: 82%
Barometer: 994 hPa
Skyer: For det meste skyet
Sikt: More than 10 km
Skydetaljer: Delvis Skyet 487.7 m,
For det meste skyet 1280.2 m
ENHV 251020Z 16009KT 9999 VCSH SCT016 BKN042 09/06 Q0994
ENSB - Svalbard
oppdatert: 25-09-2020 12:20
For det meste skyet  
For det meste skyet  
   Vind: NNØ 6.2 m/s
Vind: NNØ 6.2 m/s
Temperatur: 0°C
Wind Chill: -6°C
Duggpunkt: -6°C
Fuktighet: 64%
Barometer: 1004 hPa
Skyer: For det meste skyet
Sikt: More than 10 km
Skydetaljer: få skyer 914.4 m,
For det meste skyet 1219.2 m
ENSB 251020Z 03012KT 9999 FEW030 BKN040 00/M06 Q1004 NOSIG RMK WIND 1400FT 03013KT
NZSP - Sørpolen
oppdatert: 25-09-2020 07:50
Ikkje oppdatert
iskrystaller, få skyer  
iskrystaller, få skyer  
   Vind: Øst 3.1 m/s
Vind: Øst 3.1 m/s
Temperatur: -64°C
Wind Chill: -81°C
Barometer: 958 hPa
Skyer: få skyer
Sikt: 2.4 km
Skydetaljer: få skyer 304.8 m
NZSP 250550Z 08006KT 2400 IC FEW010 M64/ A2829 RMK CLN AIR 08003KT ALL WNDS GRID
 

Script utviklet av  Saratoga-weather.org Tilrettelagt for malen av  Weerstation Leuven

Utstyr vi bruker:

Værstsjon
Davis VP2+ 24/H Fars, Online-Ups, 4G Backup.

Værprogram
Weather Display

Ekstra utstyr
Custom builds pcs

Provider
Hosted By Pro Isp

Davis VP2+ 24/H Fars, Online-Ups, 4G Backup.

Weather Display

Custom builds pcs

Hosted By Pro Isp